Terminal Aerodrome Forecast
Issued by NWS Melbourne, FL

Current Version | Previous Version | Text Only | Print | Product List | Glossary On
Versions: 1 2 3 4 5 6 7 8 9 10 11 12 13 14
000
FTUS42 KMLB 291138
TAFDAB
TAF
KDAB 291138Z 2912/3012 21004KT P6SM FEW080 BKN250
     FM291500 25006KT P6SM FEW030 SCT100
     FM291800 12008KT P6SM VCTS SCT035CB SCT060
      TEMPO 2920/2923 3SM TSRA BKN030CB
     FM300000 20004KT P6SM FEW030 SCT080 BKN250
     FM300600 21003KT P6SM FEW100 SCT250=

USA.gov is the U.S. government's official web portal to all federal, state and local government web resources and services.